sensor_id;sensor_type;location;lat;lon;timestamp;P1;durP1;ratioP1;P2;durP2;ratioP2
27580;SDS011;15013;52.298;7.978;2022-08-25T00:01:16;7.53;;;4.28;;
27580;SDS011;15013;52.298;7.978;2022-08-25T00:06:17;6.25;;;4.00;;
27580;SDS011;15013;52.298;7.978;2022-08-25T00:11:21;4.15;;;3.75;;
27580;SDS011;15013;52.298;7.978;2022-08-25T00:16:22;7.80;;;3.70;;
27580;SDS011;15013;52.298;7.978;2022-08-25T00:21:22;6.55;;;4.28;;
27580;SDS011;15013;52.298;7.978;2022-08-25T00:26:23;8.40;;;4.50;;
27580;SDS011;15013;52.298;7.978;2022-08-25T00:31:25;11.88;;;4.53;;
27580;SDS011;15013;52.298;7.978;2022-08-25T00:36:25;9.73;;;4.47;;
27580;SDS011;15013;52.298;7.978;2022-08-25T00:41:27;6.45;;;4.15;;
27580;SDS011;15013;52.298;7.978;2022-08-25T00:46:33;4.68;;;4.07;;
27580;SDS011;15013;52.298;7.978;2022-08-25T00:56:33;7.80;;;4.53;;
27580;SDS011;15013;52.298;7.978;2022-08-25T01:01:34;6.90;;;4.30;;
27580;SDS011;15013;52.298;7.978;2022-08-25T01:06:35;6.67;;;4.27;;
27580;SDS011;15013;52.298;7.978;2022-08-25T01:11:38;7.95;;;4.05;;
27580;SDS011;15013;52.298;7.978;2022-08-25T01:16:39;10.57;;;4.70;;
27580;SDS011;15013;52.298;7.978;2022-08-25T01:27:03;4.60;;;4.18;;
27580;SDS011;15013;52.298;7.978;2022-08-25T01:37:44;5.57;;;4.40;;
27580;SDS011;15013;52.298;7.978;2022-08-25T01:48:22;6.15;;;4.28;;
27580;SDS011;15013;52.298;7.978;2022-08-25T01:53:27;7.10;;;4.30;;
27580;SDS011;15013;52.298;7.978;2022-08-25T02:09:49;12.82;;;4.63;;
27580;SDS011;15013;52.298;7.978;2022-08-25T02:14:49;5.30;;;4.43;;
27580;SDS011;15013;52.298;7.978;2022-08-25T02:25:16;6.57;;;5.10;;
27580;SDS011;15013;52.298;7.978;2022-08-25T02:30:17;10.80;;;5.15;;
27580;SDS011;15013;52.298;7.978;2022-08-25T02:35:17;6.93;;;4.70;;
27580;SDS011;15013;52.298;7.978;2022-08-25T02:40:18;7.85;;;4.88;;
27580;SDS011;15013;52.298;7.978;2022-08-25T02:45:20;7.43;;;5.13;;
27580;SDS011;15013;52.298;7.978;2022-08-25T02:50:20;8.93;;;4.73;;
27580;SDS011;15013;52.298;7.978;2022-08-25T02:55:21;7.93;;;4.93;;
27580;SDS011;15013;52.298;7.978;2022-08-25T03:00:22;8.18;;;4.80;;
27580;SDS011;15013;52.298;7.978;2022-08-25T03:05:23;7.80;;;4.90;;
27580;SDS011;15013;52.298;7.978;2022-08-25T03:10:23;7.93;;;4.93;;
27580;SDS011;15013;52.298;7.978;2022-08-25T03:15:24;9.93;;;5.17;;
27580;SDS011;15013;52.298;7.978;2022-08-25T03:20:26;9.48;;;4.55;;
27580;SDS011;15013;52.298;7.978;2022-08-25T03:25:27;9.57;;;5.25;;
27580;SDS011;15013;52.298;7.978;2022-08-25T03:30:46;14.63;;;5.35;;
27580;SDS011;15013;52.298;7.978;2022-08-25T03:35:46;7.32;;;4.88;;
27580;SDS011;15013;52.298;7.978;2022-08-25T03:40:47;7.20;;;4.85;;
27580;SDS011;15013;52.298;7.978;2022-08-25T03:45:48;7.43;;;5.15;;
27580;SDS011;15013;52.298;7.978;2022-08-25T03:50:49;8.40;;;5.60;;
27580;SDS011;15013;52.298;7.978;2022-08-25T03:55:50;8.00;;;4.85;;
27580;SDS011;15013;52.298;7.978;2022-08-25T04:00:50;9.32;;;5.72;;
27580;SDS011;15013;52.298;7.978;2022-08-25T04:05:51;10.07;;;5.05;;
27580;SDS011;15013;52.298;7.978;2022-08-25T04:10:51;8.68;;;5.43;;
27580;SDS011;15013;52.298;7.978;2022-08-25T04:15:51;8.63;;;5.67;;
27580;SDS011;15013;52.298;7.978;2022-08-25T04:20:55;7.80;;;5.37;;
27580;SDS011;15013;52.298;7.978;2022-08-25T04:26:00;7.05;;;5.32;;
27580;SDS011;15013;52.298;7.978;2022-08-25T04:31:00;10.65;;;5.43;;
27580;SDS011;15013;52.298;7.978;2022-08-25T04:36:01;7.43;;;5.70;;
27580;SDS011;15013;52.298;7.978;2022-08-25T04:41:02;9.40;;;5.53;;
27580;SDS011;15013;52.298;7.978;2022-08-25T04:46:10;13.65;;;5.88;;
27580;SDS011;15013;52.298;7.978;2022-08-25T04:51:12;9.55;;;5.78;;
27580;SDS011;15013;52.298;7.978;2022-08-25T04:56:14;11.65;;;6.10;;
27580;SDS011;15013;52.298;7.978;2022-08-25T05:01:17;7.65;;;5.63;;
27580;SDS011;15013;52.298;7.978;2022-08-25T05:06:17;7.65;;;5.55;;
27580;SDS011;15013;52.298;7.978;2022-08-25T05:11:18;9.50;;;5.77;;
27580;SDS011;15013;52.298;7.978;2022-08-25T05:16:19;11.52;;;6.38;;
27580;SDS011;15013;52.298;7.978;2022-08-25T05:21:20;17.17;;;5.22;;
27580;SDS011;15013;52.298;7.978;2022-08-25T05:26:21;10.10;;;6.25;;
27580;SDS011;15013;52.298;7.978;2022-08-25T05:31:22;10.07;;;5.68;;
27580;SDS011;15013;52.298;7.978;2022-08-25T05:36:24;12.27;;;6.07;;
27580;SDS011;15013;52.298;7.978;2022-08-25T05:41:26;17.05;;;6.30;;
27580;SDS011;15013;52.298;7.978;2022-08-25T05:46:26;19.35;;;6.13;;
27580;SDS011;15013;52.298;7.978;2022-08-25T05:51:27;8.40;;;5.80;;
27580;SDS011;15013;52.298;7.978;2022-08-25T05:56:28;14.30;;;6.13;;
27580;SDS011;15013;52.298;7.978;2022-08-25T06:01:29;8.85;;;5.38;;
27580;SDS011;15013;52.298;7.978;2022-08-25T06:06:48;12.20;;;5.53;;
27580;SDS011;15013;52.298;7.978;2022-08-25T06:11:52;13.48;;;5.80;;
27580;SDS011;15013;52.298;7.978;2022-08-25T06:16:53;8.95;;;5.40;;
27580;SDS011;15013;52.298;7.978;2022-08-25T06:21:54;8.88;;;5.70;;
27580;SDS011;15013;52.298;7.978;2022-08-25T06:26:55;11.07;;;5.78;;
27580;SDS011;15013;52.298;7.978;2022-08-25T06:31:55;12.00;;;6.07;;
27580;SDS011;15013;52.298;7.978;2022-08-25T06:36:56;7.63;;;5.53;;
27580;SDS011;15013;52.298;7.978;2022-08-25T06:41:56;10.57;;;5.90;;
27580;SDS011;15013;52.298;7.978;2022-08-25T06:46:59;9.13;;;6.10;;
27580;SDS011;15013;52.298;7.978;2022-08-25T06:51:59;10.80;;;5.10;;
27580;SDS011;15013;52.298;7.978;2022-08-25T06:57:00;9.45;;;5.95;;
27580;SDS011;15013;52.298;7.978;2022-08-25T07:02:01;10.43;;;5.83;;
27580;SDS011;15013;52.298;7.978;2022-08-25T07:07:02;12.43;;;5.40;;
27580;SDS011;15013;52.298;7.978;2022-08-25T07:12:02;9.82;;;5.53;;
27580;SDS011;15013;52.298;7.978;2022-08-25T07:17:03;6.95;;;5.45;;
27580;SDS011;15013;52.298;7.978;2022-08-25T07:22:03;9.70;;;5.53;;
27580;SDS011;15013;52.298;7.978;2022-08-25T07:27:04;11.07;;;5.88;;
27580;SDS011;15013;52.298;7.978;2022-08-25T07:32:04;11.40;;;5.93;;
27580;SDS011;15013;52.298;7.978;2022-08-25T07:37:05;11.25;;;6.00;;
27580;SDS011;15013;52.298;7.978;2022-08-25T07:42:06;9.70;;;5.43;;
27580;SDS011;15013;52.298;7.978;2022-08-25T07:47:06;7.55;;;5.57;;
27580;SDS011;15013;52.298;7.978;2022-08-25T07:52:07;11.57;;;6.27;;
27580;SDS011;15013;52.298;7.978;2022-08-25T07:57:07;11.38;;;6.18;;
27580;SDS011;15013;52.298;7.978;2022-08-25T08:02:08;11.02;;;6.07;;
27580;SDS011;15013;52.298;7.978;2022-08-25T08:07:10;10.25;;;5.97;;
27580;SDS011;15013;52.298;7.978;2022-08-25T08:12:10;10.13;;;6.30;;
27580;SDS011;15013;52.298;7.978;2022-08-25T08:17:11;8.30;;;6.18;;
27580;SDS011;15013;52.298;7.978;2022-08-25T08:22:12;9.38;;;6.32;;
27580;SDS011;15013;52.298;7.978;2022-08-25T08:27:15;14.48;;;7.15;;
27580;SDS011;15013;52.298;7.978;2022-08-25T08:32:16;10.67;;;7.27;;
27580;SDS011;15013;52.298;7.978;2022-08-25T08:37:17;11.18;;;7.50;;
27580;SDS011;15013;52.298;7.978;2022-08-25T08:47:41;12.13;;;7.30;;
27580;SDS011;15013;52.298;7.978;2022-08-25T08:52:43;9.38;;;7.20;;
27580;SDS011;15013;52.298;7.978;2022-08-25T08:57:46;10.65;;;7.25;;
27580;SDS011;15013;52.298;7.978;2022-08-25T09:02:54;12.52;;;6.63;;
27580;SDS011;15013;52.298;7.978;2022-08-25T09:07:58;8.18;;;6.57;;
27580;SDS011;15013;52.298;7.978;2022-08-25T09:23:13;10.52;;;7.10;;
27580;SDS011;15013;52.298;7.978;2022-08-25T09:29:20;13.15;;;7.15;;
27580;SDS011;15013;52.298;7.978;2022-08-25T09:33:54;9.13;;;6.80;;
27580;SDS011;15013;52.298;7.978;2022-08-25T09:38:56;10.20;;;6.78;;
27580;SDS011;15013;52.298;7.978;2022-08-25T09:43:56;11.63;;;7.10;;
27580;SDS011;15013;52.298;7.978;2022-08-25T09:48:57;10.90;;;7.17;;
27580;SDS011;15013;52.298;7.978;2022-08-25T09:59:26;14.30;;;7.03;;
27580;SDS011;15013;52.298;7.978;2022-08-25T10:04:31;11.75;;;6.80;;
27580;SDS011;15013;52.298;7.978;2022-08-25T10:09:33;12.77;;;6.32;;
27580;SDS011;15013;52.298;7.978;2022-08-25T10:14:34;9.43;;;7.35;;
27580;SDS011;15013;52.298;7.978;2022-08-25T10:19:37;11.60;;;7.27;;
27580;SDS011;15013;52.298;7.978;2022-08-25T10:24:39;7.10;;;6.40;;
27580;SDS011;15013;52.298;7.978;2022-08-25T10:30:23;8.65;;;6.18;;
27580;SDS011;15013;52.298;7.978;2022-08-25T10:35:08;11.10;;;6.75;;
27580;SDS011;15013;52.298;7.978;2022-08-25T10:40:46;8.20;;;6.15;;
27580;SDS011;15013;52.298;7.978;2022-08-25T10:45:44;7.57;;;6.68;;
27580;SDS011;15013;52.298;7.978;2022-08-25T10:50:52;11.55;;;6.72;;
27580;SDS011;15013;52.298;7.978;2022-08-25T11:01:41;7.88;;;5.95;;
27580;SDS011;15013;52.298;7.978;2022-08-25T11:06:17;7.50;;;5.90;;
27580;SDS011;15013;52.298;7.978;2022-08-25T11:16:24;8.02;;;6.35;;
27580;SDS011;15013;52.298;7.978;2022-08-25T11:21:36;10.20;;;6.65;;
27580;SDS011;15013;52.298;7.978;2022-08-25T11:26:37;8.95;;;6.13;;
27580;SDS011;15013;52.298;7.978;2022-08-25T11:31:43;7.80;;;6.50;;
27580;SDS011;15013;52.298;7.978;2022-08-25T11:42:15;7.47;;;6.63;;
27580;SDS011;15013;52.298;7.978;2022-08-25T11:57:33;9.32;;;7.22;;
27580;SDS011;15013;52.298;7.978;2022-08-25T12:02:35;9.90;;;7.22;;
27580;SDS011;15013;52.298;7.978;2022-08-25T12:23:06;9.15;;;7.45;;
27580;SDS011;15013;52.298;7.978;2022-08-25T12:28:52;8.10;;;7.03;;
27580;SDS011;15013;52.298;7.978;2022-08-25T12:33:31;8.85;;;7.95;;
27580;SDS011;15013;52.298;7.978;2022-08-25T12:48:44;8.63;;;7.43;;
27580;SDS011;15013;52.298;7.978;2022-08-25T13:14:33;9.90;;;8.02;;
27580;SDS011;15013;52.298;7.978;2022-08-25T13:19:36;9.35;;;8.48;;
27580;SDS011;15013;52.298;7.978;2022-08-25T13:24:40;10.15;;;9.00;;
27580;SDS011;15013;52.298;7.978;2022-08-25T13:29:51;9.02;;;8.15;;
27580;SDS011;15013;52.298;7.978;2022-08-25T13:34:54;8.60;;;7.57;;
27580;SDS011;15013;52.298;7.978;2022-08-25T13:40:20;8.85;;;8.00;;
27580;SDS011;15013;52.298;7.978;2022-08-25T13:45:24;9.00;;;8.20;;
27580;SDS011;15013;52.298;7.978;2022-08-25T14:00:27;8.63;;;7.82;;
27580;SDS011;15013;52.298;7.978;2022-08-25T14:05:39;10.25;;;8.23;;
27580;SDS011;15013;52.298;7.978;2022-08-25T14:10:41;9.68;;;8.55;;
27580;SDS011;15013;52.298;7.978;2022-08-25T14:15:42;10.38;;;7.90;;
27580;SDS011;15013;52.298;7.978;2022-08-25T14:20:45;10.02;;;8.35;;
27580;SDS011;15013;52.298;7.978;2022-08-25T14:25:47;10.45;;;8.65;;
27580;SDS011;15013;52.298;7.978;2022-08-25T14:30:49;9.60;;;8.68;;
27580;SDS011;15013;52.298;7.978;2022-08-25T14:35:52;10.98;;;8.40;;
27580;SDS011;15013;52.298;7.978;2022-08-25T14:40:53;15.65;;;9.70;;
27580;SDS011;15013;52.298;7.978;2022-08-25T14:45:53;10.15;;;9.30;;
27580;SDS011;15013;52.298;7.978;2022-08-25T14:50:55;17.87;;;11.20;;
27580;SDS011;15013;52.298;7.978;2022-08-25T14:55:56;12.95;;;9.32;;
27580;SDS011;15013;52.298;7.978;2022-08-25T15:00:57;11.07;;;9.03;;
27580;SDS011;15013;52.298;7.978;2022-08-25T15:05:58;12.77;;;9.60;;
27580;SDS011;15013;52.298;7.978;2022-08-25T15:10:59;10.75;;;8.95;;
27580;SDS011;15013;52.298;7.978;2022-08-25T15:15:59;10.30;;;9.10;;
27580;SDS011;15013;52.298;7.978;2022-08-25T15:21:00;10.43;;;8.50;;
27580;SDS011;15013;52.298;7.978;2022-08-25T15:26:01;12.45;;;8.82;;
27580;SDS011;15013;52.298;7.978;2022-08-25T15:31:01;10.43;;;8.77;;
27580;SDS011;15013;52.298;7.978;2022-08-25T15:36:02;11.50;;;8.33;;
27580;SDS011;15013;52.298;7.978;2022-08-25T15:41:03;12.48;;;8.63;;
27580;SDS011;15013;52.298;7.978;2022-08-25T15:46:04;10.07;;;7.95;;
27580;SDS011;15013;52.298;7.978;2022-08-25T15:51:05;15.65;;;8.77;;
27580;SDS011;15013;52.298;7.978;2022-08-25T15:56:07;10.25;;;8.50;;
27580;SDS011;15013;52.298;7.978;2022-08-25T16:01:21;10.30;;;8.97;;
27580;SDS011;15013;52.298;7.978;2022-08-25T16:11:24;12.35;;;9.10;;
27580;SDS011;15013;52.298;7.978;2022-08-25T16:16:25;10.05;;;8.70;;
27580;SDS011;15013;52.298;7.978;2022-08-25T16:21:27;14.27;;;9.18;;
27580;SDS011;15013;52.298;7.978;2022-08-25T16:26:28;9.95;;;8.95;;
27580;SDS011;15013;52.298;7.978;2022-08-25T16:31:29;11.73;;;9.77;;
27580;SDS011;15013;52.298;7.978;2022-08-25T16:36:29;11.23;;;9.63;;
27580;SDS011;15013;52.298;7.978;2022-08-25T16:41:30;12.60;;;9.52;;
27580;SDS011;15013;52.298;7.978;2022-08-25T16:46:33;10.07;;;8.75;;
27580;SDS011;15013;52.298;7.978;2022-08-25T16:51:35;10.63;;;9.20;;
27580;SDS011;15013;52.298;7.978;2022-08-25T16:56:36;10.60;;;9.43;;
27580;SDS011;15013;52.298;7.978;2022-08-25T17:01:37;11.52;;;8.98;;
27580;SDS011;15013;52.298;7.978;2022-08-25T17:06:40;12.45;;;9.90;;
27580;SDS011;15013;52.298;7.978;2022-08-25T17:11:42;10.15;;;9.13;;
27580;SDS011;15013;52.298;7.978;2022-08-25T17:16:45;12.15;;;9.43;;
27580;SDS011;15013;52.298;7.978;2022-08-25T17:21:46;10.55;;;9.45;;
27580;SDS011;15013;52.298;7.978;2022-08-25T17:26:46;10.53;;;9.43;;
27580;SDS011;15013;52.298;7.978;2022-08-25T17:31:50;10.10;;;9.05;;
27580;SDS011;15013;52.298;7.978;2022-08-25T17:36:50;13.27;;;9.48;;
27580;SDS011;15013;52.298;7.978;2022-08-25T17:41:52;12.70;;;11.38;;
27580;SDS011;15013;52.298;7.978;2022-08-25T17:46:52;11.77;;;10.57;;
27580;SDS011;15013;52.298;7.978;2022-08-25T17:51:53;14.57;;;10.47;;
27580;SDS011;15013;52.298;7.978;2022-08-25T17:56:53;10.90;;;9.47;;
27580;SDS011;15013;52.298;7.978;2022-08-25T18:01:53;12.53;;;10.40;;
27580;SDS011;15013;52.298;7.978;2022-08-25T18:06:54;11.90;;;9.40;;
27580;SDS011;15013;52.298;7.978;2022-08-25T18:11:55;11.85;;;10.05;;
27580;SDS011;15013;52.298;7.978;2022-08-25T18:16:55;11.73;;;9.82;;
27580;SDS011;15013;52.298;7.978;2022-08-25T18:21:56;11.52;;;10.07;;
27580;SDS011;15013;52.298;7.978;2022-08-25T18:26:56;10.67;;;9.07;;
27580;SDS011;15013;52.298;7.978;2022-08-25T18:31:56;15.83;;;11.10;;
27580;SDS011;15013;52.298;7.978;2022-08-25T18:36:57;16.93;;;10.97;;
27580;SDS011;15013;52.298;7.978;2022-08-25T18:42:17;16.75;;;11.60;;
27580;SDS011;15013;52.298;7.978;2022-08-25T18:47:18;11.88;;;10.43;;
27580;SDS011;15013;52.298;7.978;2022-08-25T18:52:19;12.03;;;10.53;;
27580;SDS011;15013;52.298;7.978;2022-08-25T18:57:21;16.80;;;11.35;;
27580;SDS011;15013;52.298;7.978;2022-08-25T19:02:21;12.43;;;9.60;;
27580;SDS011;15013;52.298;7.978;2022-08-25T19:07:22;15.60;;;10.57;;
27580;SDS011;15013;52.298;7.978;2022-08-25T19:12:22;16.97;;;14.10;;
27580;SDS011;15013;52.298;7.978;2022-08-25T19:17:22;14.07;;;11.23;;
27580;SDS011;15013;52.298;7.978;2022-08-25T19:22:23;17.38;;;12.73;;
27580;SDS011;15013;52.298;7.978;2022-08-25T19:27:23;17.03;;;12.13;;
27580;SDS011;15013;52.298;7.978;2022-08-25T19:32:24;15.63;;;13.55;;
27580;SDS011;15013;52.298;7.978;2022-08-25T19:37:25;44.67;;;35.70;;
27580;SDS011;15013;52.298;7.978;2022-08-25T19:42:25;23.05;;;17.48;;
27580;SDS011;15013;52.298;7.978;2022-08-25T19:47:26;13.98;;;12.43;;
27580;SDS011;15013;52.298;7.978;2022-08-25T19:52:28;16.90;;;12.80;;
27580;SDS011;15013;52.298;7.978;2022-08-25T19:57:29;17.30;;;11.30;;
27580;SDS011;15013;52.298;7.978;2022-08-25T20:02:30;20.98;;;14.95;;
27580;SDS011;15013;52.298;7.978;2022-08-25T20:07:31;16.57;;;12.50;;
27580;SDS011;15013;52.298;7.978;2022-08-25T20:12:31;17.17;;;12.20;;
27580;SDS011;15013;52.298;7.978;2022-08-25T20:17:31;18.42;;;12.13;;
27580;SDS011;15013;52.298;7.978;2022-08-25T20:22:32;20.23;;;13.10;;
27580;SDS011;15013;52.298;7.978;2022-08-25T20:27:35;21.13;;;13.30;;
27580;SDS011;15013;52.298;7.978;2022-08-25T20:32:35;16.33;;;12.52;;
27580;SDS011;15013;52.298;7.978;2022-08-25T20:37:36;20.13;;;12.60;;
27580;SDS011;15013;52.298;7.978;2022-08-25T20:42:36;19.13;;;13.20;;
27580;SDS011;15013;52.298;7.978;2022-08-25T20:47:37;17.48;;;13.05;;
27580;SDS011;15013;52.298;7.978;2022-08-25T20:52:38;24.67;;;13.88;;
27580;SDS011;15013;52.298;7.978;2022-08-25T20:57:38;20.70;;;13.80;;
27580;SDS011;15013;52.298;7.978;2022-08-25T21:02:39;20.08;;;13.10;;
27580;SDS011;15013;52.298;7.978;2022-08-25T21:07:39;19.07;;;13.87;;
27580;SDS011;15013;52.298;7.978;2022-08-25T21:12:40;19.80;;;13.18;;
27580;SDS011;15013;52.298;7.978;2022-08-25T21:17:41;17.58;;;13.68;;
27580;SDS011;15013;52.298;7.978;2022-08-25T21:22:42;21.20;;;13.30;;
27580;SDS011;15013;52.298;7.978;2022-08-25T21:27:42;15.37;;;13.07;;
27580;SDS011;15013;52.298;7.978;2022-08-25T21:32:43;19.38;;;13.38;;
27580;SDS011;15013;52.298;7.978;2022-08-25T21:37:43;19.35;;;13.90;;
27580;SDS011;15013;52.298;7.978;2022-08-25T21:42:44;24.97;;;14.53;;
27580;SDS011;15013;52.298;7.978;2022-08-25T21:47:44;24.23;;;15.50;;
27580;SDS011;15013;52.298;7.978;2022-08-25T21:52:44;16.00;;;13.93;;
27580;SDS011;15013;52.298;7.978;2022-08-25T21:57:45;19.93;;;13.77;;
27580;SDS011;15013;52.298;7.978;2022-08-25T22:02:45;18.90;;;14.80;;
27580;SDS011;15013;52.298;7.978;2022-08-25T22:07:46;19.45;;;14.77;;
27580;SDS011;15013;52.298;7.978;2022-08-25T22:12:46;17.43;;;14.10;;
27580;SDS011;15013;52.298;7.978;2022-08-25T22:17:47;21.55;;;14.75;;
27580;SDS011;15013;52.298;7.978;2022-08-25T22:22:48;20.65;;;14.40;;
27580;SDS011;15013;52.298;7.978;2022-08-25T22:27:48;20.93;;;14.33;;
27580;SDS011;15013;52.298;7.978;2022-08-25T22:32:49;17.70;;;15.15;;
27580;SDS011;15013;52.298;7.978;2022-08-25T22:37:50;18.30;;;14.50;;
27580;SDS011;15013;52.298;7.978;2022-08-25T22:42:50;21.90;;;16.07;;
27580;SDS011;15013;52.298;7.978;2022-08-25T22:47:51;20.00;;;15.88;;
27580;SDS011;15013;52.298;7.978;2022-08-25T22:52:51;17.48;;;15.68;;
27580;SDS011;15013;52.298;7.978;2022-08-25T22:57:52;20.27;;;15.87;;
27580;SDS011;15013;52.298;7.978;2022-08-25T23:02:52;18.03;;;15.63;;
27580;SDS011;15013;52.298;7.978;2022-08-25T23:07:52;22.52;;;16.35;;
27580;SDS011;15013;52.298;7.978;2022-08-25T23:12:53;24.17;;;17.43;;
27580;SDS011;15013;52.298;7.978;2022-08-25T23:17:53;18.10;;;15.80;;
27580;SDS011;15013;52.298;7.978;2022-08-25T23:22:54;26.60;;;17.80;;
27580;SDS011;15013;52.298;7.978;2022-08-25T23:27:55;21.88;;;16.75;;
27580;SDS011;15013;52.298;7.978;2022-08-25T23:32:55;25.17;;;17.23;;
27580;SDS011;15013;52.298;7.978;2022-08-25T23:37:55;22.73;;;17.53;;
27580;SDS011;15013;52.298;7.978;2022-08-25T23:42:56;22.52;;;17.80;;
27580;SDS011;15013;52.298;7.978;2022-08-25T23:47:57;25.27;;;19.10;;
27580;SDS011;15013;52.298;7.978;2022-08-25T23:52:57;23.63;;;18.10;;
27580;SDS011;15013;52.298;7.978;2022-08-25T23:57:57;26.83;;;17.30;;
